Time;durP1;ratioP1;P1;durP2;ratioP2;P2;SDS_P1;SDS_P2;PMS_P1;PMS_P2;Temp;Humidity;BMP_temperature;BMP_pressure;BME280_temperature;BME280_humidity;BME280_pressure;Samples;Min_cycle;Max_cycle;Signal;HPM_P1;HPM_P2
2022/09/18 00:01:38;;;;;;;3.15;0.90;;;;;;;-143.04;100.00;61139.28;4110530;28;20051;-87
2022/09/18 00:03:41;;;;;;;1.95;0.80;;;;;;;-143.04;100.00;61139.28;4104434;28;20844;-86
2022/09/18 00:05:43;;;;;;;3.00;1.08;;;;;;;-143.04;100.00;61139.28;4109812;28;20051;-86
2022/09/18 00:07:44;;;;;;;4.85;0.90;;;;;;;-143.04;100.00;61139.28;4109662;28;20042;-89
2022/09/18 00:09:46;;;;;;;2.20;0.88;;;;;;;-143.04;100.00;61139.28;4108220;28;20577;-85
2022/09/18 00:11:48;;;;;;;3.25;0.80;;;;;;;-143.04;100.00;61139.28;4114811;28;20043;-88
2022/09/18 00:13:51;;;;;;;2.63;0.80;;;;;;;-143.04;100.00;61139.28;4103601;28;20051;-87
2022/09/18 00:15:54;;;;;;;0.93;0.80;;;;;;;-143.04;100.00;61139.28;4129032;28;20046;-87
2022/09/18 00:17:55;;;;;;;3.63;1.00;;;;;;;-143.04;100.00;61139.28;4101312;28;20050;-86
2022/09/18 00:19:57;;;;;;;3.65;1.20;;;;;;;-143.04;100.00;61139.28;4129628;28;20141;-86
2022/09/18 00:21:58;;;;;;;1.02;0.75;;;;;;;-143.04;100.00;61139.28;4124507;28;20059;-86
2022/09/18 00:24:00;;;;;;;3.00;0.90;;;;;;;-143.04;100.00;61139.28;4113028;28;20051;-86
2022/09/18 00:26:04;;;;;;;1.70;0.80;;;;;;;-143.04;100.00;61139.28;4117129;28;20050;-85
2022/09/18 00:28:05;;;;;;;1.65;0.80;;;;;;;-143.04;100.00;61139.28;4127735;28;20046;-86
2022/09/18 00:30:07;;;;;;;2.83;0.88;;;;;;;-143.04;100.00;61139.28;4106765;28;20047;-89
2022/09/18 00:32:09;;;;;;;3.97;0.98;;;;;;;-143.04;100.00;61139.28;4116987;28;20384;-84
2022/09/18 00:34:16;;;;;;;1.20;1.08;;;;;;;-143.04;100.00;61139.28;4116629;28;20588;-85
2022/09/18 00:36:19;;;;;;;1.75;0.70;;;;;;;-143.04;100.00;61139.28;4118768;28;20379;-87
2022/09/18 00:38:20;;;;;;;4.43;0.90;;;;;;;-143.04;100.00;61139.28;4102495;28;20051;-85
2022/09/18 00:40:22;;;;;;;2.05;0.98;;;;;;;-143.04;100.00;61139.28;4129526;28;20046;-87
2022/09/18 00:42:24;;;;;;;2.55;0.90;;;;;;;-143.04;100.00;61139.28;4132216;28;20042;-86
2022/09/18 00:44:30;;;;;;;4.25;1.00;;;;;;;-143.04;100.00;61139.28;4113048;28;20066;-86
2022/09/18 00:46:35;;;;;;;1.55;1.20;;;;;;;-143.04;100.00;61139.28;4113518;28;20051;-86
2022/09/18 00:48:48;;;;;;;4.18;0.80;;;;;;;-143.04;100.00;61139.28;4115668;28;20059;-89
2022/09/18 00:50:50;;;;;;;2.08;1.05;;;;;;;-143.04;100.00;61139.28;4114964;28;20043;-86
2022/09/18 00:53:00;;;;;;;2.47;1.15;;;;;;;-143.04;100.00;61139.28;4119990;28;20054;-86
2022/09/18 00:55:07;;;;;;;1.90;1.00;;;;;;;-143.04;100.00;61139.28;4129057;28;20042;-88
2022/09/18 00:57:13;;;;;;;2.53;1.00;;;;;;;-143.04;100.00;61139.28;4131941;28;20042;-86
2022/09/18 00:59:21;;;;;;;4.93;1.00;;;;;;;-143.04;100.00;61139.28;4115819;28;20133;-87
2022/09/18 01:01:23;;;;;;;1.58;0.90;;;;;;;-143.04;100.00;61139.28;4139327;28;20149;-89
2022/09/18 01:03:24;;;;;;;3.28;1.13;;;;;;;-143.04;100.00;61139.28;4105132;28;20074;-87
2022/09/18 01:05:48;;;;;;;2.25;1.20;;;;;;;-143.04;100.00;61139.28;4117246;28;20053;-87
2022/09/18 01:07:55;;;;;;;1.75;0.98;;;;;;;-143.04;100.00;61139.28;4109672;28;20142;-88
2022/09/18 01:10:03;;;;;;;5.50;1.23;;;;;;;-143.04;100.00;61139.28;4115635;28;20078;-85
2022/09/18 01:12:27;;;;;;;2.38;1.00;;;;;;;-143.04;100.00;61139.28;4110819;28;20118;-86
2022/09/18 01:14:43;;;;;;;2.20;1.33;;;;;;;-143.04;100.00;61139.28;4104304;28;20073;-88
2022/09/18 01:17:08;;;;;;;4.78;1.40;;;;;;;-143.04;100.00;61139.28;4129233;28;20379;-87
2022/09/18 01:19:38;;;;;;;1.70;1.20;;;;;;;-143.04;100.00;61139.28;4107927;28;20051;-88
2022/09/18 01:21:54;;;;;;;2.97;1.10;;;;;;;-143.04;100.00;61139.28;4104468;28;20053;-86
2022/09/18 01:23:59;;;;;;;8.80;2.13;;;;;;;-143.04;100.00;61139.28;4120909;28;20065;-88
2022/09/18 01:26:18;;;;;;;2.28;1.50;;;;;;;-143.04;100.00;61139.28;4120567;28;20061;-86
2022/09/18 01:28:29;;;;;;;1.77;1.20;;;;;;;-143.04;100.00;61139.28;4130935;28;20136;-89
2022/09/18 01:30:31;;;;;;;;;;;;;;;-143.04;100.00;61139.28;4101422;28;20081;-87
2022/09/18 01:32:47;;;;;;;2.55;1.20;;;;;;;-143.04;100.00;61139.28;4132613;28;19926;-87
2022/09/18 01:34:58;;;;;;;2.10;1.20;;;;;;;-143.04;100.00;61139.28;4106932;28;20100;-86
2022/09/18 01:37:07;;;;;;;;;;;;;;;-143.04;100.00;61139.28;4117496;28;20047;-85
2022/09/18 01:39:16;;;;;;;3.72;1.30;;;;;;;-143.04;100.00;61139.28;4117315;28;19945;-86
2022/09/18 01:41:22;;;;;;;1.60;1.27;;;;;;;-143.04;100.00;61139.28;4116115;28;20046;-88
2022/09/18 01:43:28;;;;;;;1.50;1.40;;;;;;;-143.04;100.00;61139.28;4108763;28;20037;-88
2022/09/18 01:45:33;;;;;;;1.92;1.40;;;;;;;-143.04;100.00;61139.28;4107599;28;20050;-85
2022/09/18 01:47:42;;;;;;;2.30;1.52;;;;;;;-143.04;100.00;61139.28;4119240;28;20117;-87
2022/09/18 01:49:47;;;;;;;3.30;1.30;;;;;;;-143.04;100.00;61139.28;4098890;29;20042;-88
2022/09/18 01:51:58;;;;;;;5.57;2.00;;;;;;;-143.04;100.00;61139.28;4116259;28;20064;-89
2022/09/18 01:54:06;;;;;;;3.75;1.30;;;;;;;-143.04;100.00;61139.28;4115428;28;20051;-87
2022/09/18 01:56:18;;;;;;;3.40;1.33;;;;;;;-143.04;100.00;61139.28;4101679;28;20043;-85
2022/09/18 01:58:23;;;;;;;1.73;1.00;;;;;;;-143.04;100.00;61139.28;4110943;28;20097;-88
2022/09/18 02:00:27;;;;;;;1.58;1.08;;;;;;;-143.04;100.00;61139.28;4143113;28;20061;-85
2022/09/18 02:02:36;;;;;;;2.33;1.10;;;;;;;-143.04;100.00;61139.28;4114800;28;20587;-86
2022/09/18 02:04:43;;;;;;;3.00;1.20;;;;;;;-143.04;100.00;61139.28;4131532;28;20077;-86
2022/09/18 02:07:13;;;;;;;2.13;1.10;;;;;;;-143.04;100.00;61139.28;4106306;28;21005;-85
2022/09/18 02:09:14;;;;;;;1.33;0.90;;;;;;;-143.04;100.00;61139.28;4100384;28;20051;-84
2022/09/18 02:11:17;;;;;;;3.28;1.10;;;;;;;-143.04;100.00;61139.28;4130061;28;20125;-85
2022/09/18 02:13:25;;;;;;;1.95;1.10;;;;;;;-143.04;100.00;61139.28;4108318;28;20045;-86
2022/09/18 02:15:31;;;;;;;3.08;1.33;;;;;;;-143.04;100.00;61139.28;4140388;28;20073;-88
2022/09/18 02:17:37;;;;;;;4.68;1.70;;;;;;;-143.04;100.00;61139.28;4101647;28;20039;-86
2022/09/18 02:19:45;;;;;;;2.28;1.20;;;;;;;-143.04;100.00;61139.28;4131212;28;20500;-89
2022/09/18 02:21:49;;;;;;;4.45;1.60;;;;;;;-143.04;100.00;61139.28;4114787;28;20049;-87
2022/09/18 02:23:53;;;;;;;3.75;1.30;;;;;;;-143.04;100.00;61139.28;4115419;28;20047;-87
2022/09/18 02:25:59;;;;;;;3.67;1.25;;;;;;;-143.04;100.00;61139.28;4113556;28;20083;-88
2022/09/18 02:28:04;;;;;;;5.00;1.70;;;;;;;-143.04;100.00;61139.28;4099604;29;20440;-88
2022/09/18 02:30:08;;;;;;;3.58;1.27;;;;;;;-143.04;100.00;61139.28;4115766;28;20078;-84
2022/09/18 02:32:12;;;;;;;2.10;1.38;;;;;;;-143.04;100.00;61139.28;4104970;28;20211;-88
2022/09/18 02:34:13;;;;;;;2.13;1.50;;;;;;;-143.04;100.00;61139.28;4107744;28;20055;-89
2022/09/18 02:36:43;;;;;;;1.55;1.45;;;;;;;-143.04;100.00;61139.28;4114590;28;20406;-87
2022/09/18 02:39:14;;;;;;;4.70;1.60;;;;;;;-143.04;100.00;61139.28;4112307;28;20487;-84
2022/09/18 02:41:44;;;;;;;5.20;1.40;;;;;;;-143.04;100.00;61139.28;4110807;28;20433;-87
2022/09/18 02:44:01;;;;;;;1.88;1.00;;;;;;;-143.04;100.00;61139.28;4117601;28;20047;-86
2022/09/18 02:46:34;;;;;;;3.88;1.50;;;;;;;-143.04;100.00;61139.28;4123169;28;20046;-87
2022/09/18 02:48:46;;;;;;;2.33;1.50;;;;;;;-143.04;100.00;61139.28;4115491;28;20045;-87
2022/09/18 02:51:20;;;;;;;3.85;1.30;;;;;;;-143.04;100.00;61139.28;4114889;28;20046;-86
2022/09/18 02:53:31;;;;;;;3.30;1.25;;;;;;;-143.04;100.00;61139.28;4098791;28;20051;-86
2022/09/18 02:55:42;;;;;;;2.58;1.30;;;;;;;-143.04;100.00;61139.28;4107218;28;20046;-86
2022/09/18 02:57:59;;;;;;;1.85;1.60;;;;;;;-143.04;100.00;61139.28;4103238;28;20458;-91
2022/09/18 03:00:03;;;;;;;3.47;1.60;;;;;;;-143.04;100.00;61139.28;4109931;28;20051;-85
2022/09/18 03:02:06;;;;;;;3.28;1.60;;;;;;;-143.04;100.00;61139.28;4113794;28;20051;-94
2022/09/18 03:04:14;;;;;;;2.67;1.35;;;;;;;-143.04;100.00;61139.28;4116714;28;20042;-88
2022/09/18 03:06:16;;;;;;;3.65;1.60;;;;;;;-143.04;100.00;61139.28;4108040;28;20042;-88
2022/09/18 03:08:18;;;;;;;2.72;1.52;;;;;;;-143.04;100.00;61139.28;4123039;28;20070;-89
2022/09/18 03:10:19;;;;;;;3.95;1.60;;;;;;;-143.04;100.00;61139.28;4116622;28;20458;-89
2022/09/18 03:12:21;;;;;;;3.80;1.50;;;;;;;-143.04;100.00;61139.28;4125597;28;20544;-85
2022/09/18 03:14:22;;;;;;;2.05;1.27;;;;;;;-143.04;100.00;61139.28;4108529;28;20051;-90
2022/09/18 03:16:26;;;;;;;3.92;1.50;;;;;;;-143.04;100.00;61139.28;4100324;28;20123;-86
2022/09/18 03:18:29;;;;;;;5.38;1.95;;;;;;;-143.04;100.00;61139.28;4111871;28;20058;-85
2022/09/18 03:20:30;;;;;;;4.20;1.92;;;;;;;-143.04;100.00;61139.28;4111646;28;20054;-91
2022/09/18 03:22:32;;;;;;;3.60;1.50;;;;;;;-143.04;100.00;61139.28;4110467;28;20035;-88
2022/09/18 03:24:33;;;;;;;4.80;1.70;;;;;;;-143.04;100.00;61139.28;4110356;28;20049;-87
2022/09/18 03:26:35;;;;;;;4.05;1.77;;;;;;;-143.04;100.00;61139.28;4110420;28;20063;-87
2022/09/18 03:28:37;;;;;;;3.28;1.58;;;;;;;-143.04;100.00;61139.28;4117481;28;20050;-85
2022/09/18 03:30:38;;;;;;;3.80;1.70;;;;;;;-143.04;100.00;61139.28;4115076;28;20043;-87
2022/09/18 03:32:40;;;;;;;4.47;1.33;;;;;;;-143.04;100.00;61139.28;4130581;28;20141;-87
2022/09/18 03:34:42;;;;;;;3.90;1.67;;;;;;;-143.04;100.00;61139.28;4111976;28;20106;-88
2022/09/18 03:36:45;;;;;;;2.00;1.30;;;;;;;-143.04;100.00;61139.28;4130424;28;20050;-87
2022/09/18 03:38:47;;;;;;;1.45;1.25;;;;;;;-143.04;100.00;61139.28;4117379;28;20093;-89
2022/09/18 03:40:48;;;;;;;2.20;1.38;;;;;;;-143.04;100.00;61139.28;4103543;28;20427;-88
2022/09/18 03:42:50;;;;;;;2.00;1.45;;;;;;;-143.04;100.00;61139.28;4101170;28;20043;-88
2022/09/18 03:44:52;;;;;;;4.70;1.50;;;;;;;-143.04;100.00;61139.28;4101175;28;20458;-88
2022/09/18 03:46:53;;;;;;;3.13;1.95;;;;;;;-143.04;100.00;61139.28;4131896;28;20093;-91
2022/09/18 03:48:55;;;;;;;3.22;1.55;;;;;;;-143.04;100.00;61139.28;4100797;28;20051;-90
2022/09/18 03:50:57;;;;;;;2.08;1.50;;;;;;;-143.04;100.00;61139.28;4141419;28;20548;-89
2022/09/18 03:53:00;;;;;;;2.40;1.65;;;;;;;-143.04;100.00;61139.28;4101959;28;20063;-90
2022/09/18 03:55:02;;;;;;;2.85;1.55;;;;;;;-143.04;100.00;61139.28;4119049;28;20055;-89
2022/09/18 03:57:04;;;;;;;6.60;2.00;;;;;;;-143.04;100.00;61139.28;4085624;29;20150;-90
2022/09/18 03:59:05;;;;;;;2.92;1.50;;;;;;;-143.04;100.00;61139.28;4134160;28;20058;-87
2022/09/18 04:01:07;;;;;;;5.07;2.05;;;;;;;-143.04;100.00;61139.28;4120726;28;20046;-88
2022/09/18 04:03:09;;;;;;;2.75;1.35;;;;;;;-143.04;100.00;61139.28;4119608;28;20039;-90
2022/09/18 04:05:11;;;;;;;3.28;1.50;;;;;;;-143.04;100.00;61139.28;4102617;28;20485;-89
2022/09/18 04:07:13;;;;;;;4.55;1.80;;;;;;;-143.04;100.00;61139.28;4126589;28;20047;-90
2022/09/18 04:09:15;;;;;;;2.03;1.50;;;;;;;-143.04;100.00;61139.28;4136120;28;20054;-91
2022/09/18 04:11:17;;;;;;;3.45;1.70;;;;;;;-143.04;100.00;61139.28;4118718;28;20502;-89
2022/09/18 04:13:19;;;;;;;5.65;1.98;;;;;;;-143.04;100.00;61139.28;4118419;28;20172;-84
2022/09/18 04:15:21;;;;;;;4.43;1.75;;;;;;;-143.04;100.00;61139.28;4105838;28;20537;-91
2022/09/18 04:17:22;;;;;;;2.80;1.48;;;;;;;-143.04;100.00;61139.28;4139660;28;20126;-88
2022/09/18 04:19:24;;;;;;;3.67;1.88;;;;;;;-143.04;100.00;61139.28;4140953;28;20058;-87
2022/09/18 04:21:26;;;;;;;3.10;1.67;;;;;;;-143.04;100.00;61139.28;4105808;28;20051;-91
2022/09/18 04:23:28;;;;;;;2.40;1.77;;;;;;;-143.04;100.00;61139.28;4136020;28;20053;-90
2022/09/18 04:25:29;;;;;;;5.40;1.85;;;;;;;-143.04;100.00;61139.28;4117957;28;20050;-90
2022/09/18 04:27:33;;;;;;;2.90;1.70;;;;;;;-143.04;100.00;61139.28;4127455;28;20085;-90
2022/09/18 04:29:35;;;;;;;4.05;1.95;;;;;;;-143.04;100.00;61139.28;4139007;28;20058;-89
2022/09/18 04:31:36;;;;;;;2.85;1.48;;;;;;;-143.04;100.00;61139.28;4134477;28;20050;-90
2022/09/18 04:33:38;;;;;;;3.05;1.55;;;;;;;-143.04;100.00;61139.28;4138789;28;20050;-91
2022/09/18 04:35:41;;;;;;;4.32;1.80;;;;;;;-143.04;100.00;61139.28;4110067;28;20125;-89
2022/09/18 04:37:43;;;;;;;3.03;1.63;;;;;;;-143.04;100.00;61139.28;4132981;28;20076;-90
2022/09/18 04:39:45;;;;;;;2.42;1.70;;;;;;;-143.04;100.00;61139.28;4149223;28;20049;-88
2022/09/18 04:41:49;;;;;;;3.22;1.60;;;;;;;-143.04;100.00;61139.28;4120243;28;20049;-87
2022/09/18 04:43:50;;;;;;;4.03;1.70;;;;;;;-143.04;100.00;61139.28;4115245;28;20495;-85
2022/09/18 04:45:53;;;;;;;2.40;1.70;;;;;;;-143.04;100.00;61139.28;4104857;28;20051;-89
2022/09/18 04:47:55;;;;;;;4.53;1.77;;;;;;;-143.04;100.00;61139.28;4100827;29;20406;-87
2022/09/18 04:49:56;;;;;;;2.88;1.63;;;;;;;-143.04;100.00;61139.28;4116116;28;20057;-84
2022/09/18 04:51:58;;;;;;;3.13;1.60;;;;;;;-143.04;100.00;61139.28;4127199;28;20046;-88
2022/09/18 04:54:00;;;;;;;1.83;1.60;;;;;;;-143.04;100.00;61139.28;4150521;28;20077;-91
2022/09/18 04:56:02;;;;;;;3.53;1.55;;;;;;;-143.04;100.00;61139.28;4117052;28;20155;-91
2022/09/18 04:58:04;;;;;;;3.45;1.42;;;;;;;-143.04;100.00;61139.28;4119706;28;20554;-87
2022/09/18 05:00:09;;;;;;;2.00;1.50;;;;;;;-143.04;100.00;61139.28;4101435;29;20047;-88
2022/09/18 05:02:11;;;;;;;2.67;1.35;;;;;;;-143.04;100.00;61139.28;4142644;28;20053;-91
2022/09/18 05:04:13;;;;;;;3.13;1.70;;;;;;;-143.04;100.00;61139.28;4116242;28;20070;-87
2022/09/18 05:06:14;;;;;;;5.10;1.67;;;;;;;-143.04;100.00;61139.28;4104452;28;20486;-87
2022/09/18 05:08:16;;;;;;;3.17;1.65;;;;;;;-143.04;100.00;61139.28;4138808;28;20129;-88
2022/09/18 05:10:18;;;;;;;2.58;1.60;;;;;;;-143.04;100.00;61139.28;4105316;28;20050;-90
2022/09/18 05:12:20;;;;;;;3.72;1.60;;;;;;;-143.04;100.00;61139.28;4117729;28;20482;-88
2022/09/18 05:14:22;;;;;;;3.03;1.50;;;;;;;-143.04;100.00;61139.28;4115305;28;20077;-87
2022/09/18 05:16:38;;;;;;;4.75;2.08;;;;;;;-143.04;100.00;61139.28;4108256;28;20046;-91
2022/09/18 05:18:39;;;;;;;3.30;1.50;;;;;;;-143.04;100.00;61139.28;4102104;29;20835;-87
2022/09/18 05:20:41;;;;;;;3.83;1.75;;;;;;;-143.04;100.00;61139.28;4113296;28;20051;-86
2022/09/18 05:22:46;;;;;;;4.13;2.00;;;;;;;-143.04;100.00;61139.28;4116467;28;20386;-88
2022/09/18 05:24:47;;;;;;;2.40;1.50;;;;;;;-143.04;100.00;61139.28;4100230;29;20062;-87
2022/09/18 05:26:49;;;;;;;3.47;1.80;;;;;;;-143.04;100.00;61139.28;4105976;28;20130;-87
2022/09/18 05:28:51;;;;;;;3.38;1.48;;;;;;;-143.04;100.00;61139.28;4114393;28;20069;-86
2022/09/18 05:30:57;;;;;;;2.10;1.55;;;;;;;-143.04;100.00;61139.28;4115742;28;20058;-87
2022/09/18 05:33:03;;;;;;;3.20;1.50;;;;;;;-143.04;100.00;61139.28;4142530;28;20050;-86
2022/09/18 05:35:05;;;;;;;3.00;1.50;;;;;;;-143.04;100.00;61139.28;4119157;28;20517;-89
2022/09/18 05:37:07;;;;;;;2.35;1.58;;;;;;;-143.04;100.00;61139.28;4115097;28;20486;-85
2022/09/18 05:39:09;;;;;;;2.28;1.50;;;;;;;-143.04;100.00;61139.28;4116809;28;20071;-87
2022/09/18 05:41:17;;;;;;;2.90;1.73;;;;;;;-143.04;100.00;61139.28;4112477;28;20051;-88
2022/09/18 05:43:18;;;;;;;3.50;1.60;;;;;;;-143.04;100.00;61139.28;4141430;28;20564;-88
2022/09/18 05:45:21;;;;;;;4.10;1.88;;;;;;;-143.04;100.00;61139.28;4115198;28;20530;-86
2022/09/18 05:47:22;;;;;;;2.75;1.50;;;;;;;-143.04;100.00;61139.28;4122158;28;20050;-86
2022/09/18 05:49:24;;;;;;;2.45;1.58;;;;;;;-143.04;100.00;61139.28;4113687;28;20043;-85
2022/09/18 05:51:26;;;;;;;2.78;1.40;;;;;;;-143.04;100.00;61139.28;4113365;28;20065;-87
2022/09/18 05:53:27;;;;;;;1.52;1.38;;;;;;;-143.04;100.00;61139.28;4115493;28;20055;-89
2022/09/18 05:55:30;;;;;;;1.83;1.60;;;;;;;-143.04;100.00;61139.28;4113935;28;20050;-85
2022/09/18 05:57:33;;;;;;;3.45;1.60;;;;;;;-143.04;100.00;61139.28;4116775;28;20051;-88
2022/09/18 05:59:34;;;;;;;1.88;1.45;;;;;;;-143.04;100.00;61139.28;4147156;28;20132;-88
2022/09/18 06:01:36;;;;;;;2.92;1.55;;;;;;;-143.04;100.00;61139.28;4113653;28;20122;-90
2022/09/18 06:03:38;;;;;;;3.50;1.25;;;;;;;-143.04;100.00;61139.28;4114755;28;20042;-87
2022/09/18 06:05:40;;;;;;;2.00;1.20;;;;;;;-143.04;100.00;61139.28;4130271;28;20066;-90
2022/09/18 06:07:41;;;;;;;3.60;1.48;;;;;;;-143.04;100.00;61139.28;4138829;28;20046;-86
2022/09/18 06:09:43;;;;;;;4.10;1.50;;;;;;;-143.04;100.00;61139.28;4106573;28;20101;-87
2022/09/18 06:11:47;;;;;;;1.95;1.50;;;;;;;-143.04;100.00;61139.28;4126110;28;20536;-89
2022/09/18 06:13:51;;;;;;;3.25;1.40;;;;;;;-143.04;100.00;61139.28;4147293;28;20073;-87
2022/09/18 06:15:56;;;;;;;1.92;1.50;;;;;;;-143.04;100.00;61139.28;4115018;28;20050;-91
2022/09/18 06:17:58;;;;;;;4.43;1.60;;;;;;;-143.04;100.00;61139.28;4104201;28;20046;-86
2022/09/18 06:20:00;;;;;;;1.95;1.40;;;;;;;-143.04;100.00;61139.28;4117450;28;20818;-88
2022/09/18 06:22:04;;;;;;;2.67;1.42;;;;;;;-143.04;100.00;61139.28;4123913;28;20108;-90
2022/09/18 06:24:06;;;;;;;2.17;1.40;;;;;;;-143.04;100.00;61139.28;4115499;28;20070;-85
2022/09/18 06:26:09;;;;;;;2.15;1.42;;;;;;;-143.04;100.00;61139.28;4143237;28;20050;-89
2022/09/18 06:28:15;;;;;;;2.17;1.50;;;;;;;-143.04;100.00;61139.28;4100286;28;21213;-87
2022/09/18 06:30:17;;;;;;;3.20;1.70;;;;;;;-143.04;100.00;61139.28;4111101;28;20047;-85
2022/09/18 06:32:19;;;;;;;3.83;1.50;;;;;;;-143.04;100.00;61139.28;4100654;28;20046;-86
2022/09/18 06:34:21;;;;;;;4.13;1.88;;;;;;;-143.04;100.00;61139.28;4108658;28;20411;-88
2022/09/18 06:36:25;;;;;;;3.60;1.70;;;;;;;-143.04;100.00;61139.28;4125685;28;20046;-89
2022/09/18 06:38:27;;;;;;;2.42;1.75;;;;;;;-143.04;100.00;61139.28;4131341;28;20129;-85
2022/09/18 06:40:29;;;;;;;2.42;1.40;;;;;;;-143.04;100.00;61139.28;4115460;28;20051;-87
2022/09/18 06:42:31;;;;;;;2.17;1.52;;;;;;;-143.04;100.00;61139.28;4116210;28;20058;-88
2022/09/18 06:46:30;;;;;;;5.05;1.60;;;;;;;;;;4232619;27;20654;-85
2022/09/18 06:50:41;;;;;;;2.38;1.60;;;;;;;;;;4146215;27;457601;-86
2022/09/18 06:53:05;;;;;;;3.20;2.00;;;;;;;;;;4200628;27;20126;-85
2022/09/18 06:55:12;;;;;;;2.50;1.60;;;;;;;;;;4172495;28;341789;-85
2022/09/18 06:58:01;;;;;;;3.17;1.70;;;;;;;;;;4992426;28;20817;-83
2022/09/18 07:00:28;;;;;;;2.25;1.50;;;;;;;;;;5040352;28;20469;-86
2022/09/18 07:04:18;;;;;;;1.35;1.20;;;;;;;;;;4964428;27;1615065;-84
2022/09/18 07:06:45;;;;;;;2.53;1.40;;;;;;;;;;4962932;28;20042;-84
2022/09/18 07:09:12;;;;;;;1.80;1.50;;;;;;;;;;5061600;28;20048;-88
2022/09/18 07:11:38;;;;;;;2.00;1.40;;;;;;;;;;5036972;28;20076;-87
2022/09/18 07:14:06;;;;;;;1.98;1.50;;;;;;;;;;5057037;28;20059;-87
2022/09/18 07:16:35;;;;;;;3.28;1.80;;;;;;;;;;5075075;28;20049;-85
2022/09/18 07:19:02;;;;;;;3.10;1.20;;;;;;;;;;5076556;28;20378;-87
2022/09/18 07:21:29;;;;;;;1.63;1.52;;;;;;;;;;5026431;28;20037;-84
2022/09/18 07:23:56;;;;;;;2.50;1.70;;;;;;;;;;5051725;28;20034;-87
2022/09/18 07:26:22;;;;;;;1.75;1.35;;;;;;;;;;5046225;28;20037;-85
2022/09/18 07:28:51;;;;;;;2.53;1.70;;;;;;;;;;5056865;28;20033;-86
2022/09/18 07:31:17;;;;;;;2.95;1.30;;;;;;;;;;5062491;28;20043;-84
2022/09/18 07:33:44;;;;;;;2.03;1.15;;;;;;;;;;5041417;28;20044;-84
2022/09/18 07:36:10;;;;;;;1.50;1.40;;;;;;;;;;5050167;28;20045;-87
2022/09/18 07:38:36;;;;;;;2.28;1.67;;;;;;;;;;5051227;28;20037;-87
2022/09/18 07:41:03;;;;;;;1.75;1.60;;;;;;;;;;5058833;28;20049;-87
2022/09/18 07:43:30;;;;;;;2.70;1.70;;;;;;;;;;5054070;28;20040;-86
2022/09/18 07:45:56;;;;;;;3.28;1.77;;;;;;;;;;5068925;28;20044;-88
2022/09/18 07:48:23;;;;;;;2.08;1.55;;;;;;;;;;5049669;28;20071;-87
2022/09/18 07:50:49;;;;;;;1.48;1.33;;;;;;;;;;5045199;28;20042;-86
2022/09/18 07:53:17;;;;;;;2.15;1.48;;;;;;;;;;5049320;28;20132;-87
2022/09/18 07:55:46;;;;;;;2.00;1.60;;;;;;;;;;5084133;28;20071;-86
2022/09/18 07:58:12;;;;;;;2.10;1.50;;;;;;;;;;5043090;28;20043;-84
2022/09/18 08:00:39;;;;;;;3.33;1.60;;;;;;;;;;5049641;28;20047;-85
2022/09/18 08:03:06;;;;;;;1.77;1.65;;;;;;;;;;5032907;28;20045;-83
2022/09/18 08:05:33;;;;;;;2.00;1.30;;;;;;;;;;5045715;28;20076;-86
2022/09/18 08:08:02;;;;;;;2.08;1.63;;;;;;;;;;5043863;28;20052;-88
2022/09/18 08:10:29;;;;;;;2.20;1.48;;;;;;;;;;5054637;28;20045;-85
2022/09/18 08:12:55;;;;;;;1.40;1.30;;;;;;;;;;5082331;28;20041;-85
2022/09/18 08:15:21;;;;;;;2.45;1.50;;;;;;;;;;5052871;28;20091;-85
2022/09/18 08:17:49;;;;;;;2.47;1.70;;;;;;;;;;5056852;28;20087;-87
2022/09/18 08:20:15;;;;;;;2.50;1.60;;;;;;;;;;5042483;28;20148;-85
2022/09/18 08:22:42;;;;;;;1.95;1.35;;;;;;;;;;5038083;28;20496;-83
2022/09/18 08:25:11;;;;;;;2.97;1.70;;;;;;;;;;5042104;28;20038;-87
2022/09/18 08:27:37;;;;;;;2.53;1.45;;;;;;;;;;5051010;28;20039;-83
2022/09/18 08:30:05;;;;;;;1.60;1.50;;;;;;;;;;5027669;28;20053;-91
2022/09/18 08:32:34;;;;;;;2.28;1.38;;;;;;;;;;5032526;28;20048;-89
2022/09/18 08:35:01;;;;;;;1.60;1.50;;;;;;;;;;5036491;28;20049;-86
2022/09/18 08:37:28;;;;;;;2.22;1.38;;;;;;;;;;5045390;28;20055;-88
2022/09/18 08:39:55;;;;;;;2.22;1.23;;;;;;;;;;5045880;28;20033;-88
2022/09/18 08:42:45;;;;;;;1.90;1.50;;;;;;;;;;5027823;28;20538;-88
2022/09/18 08:45:14;;;;;;;1.65;1.55;;;;;;;;;;5047834;28;20049;-86
2022/09/18 08:47:43;;;;;;;3.45;1.60;;;;;;;;;;5030951;28;20043;-88
2022/09/18 08:50:23;;;;;;;1.77;1.67;;;;;;;;;;5038316;28;20477;-89
2022/09/18 08:52:52;;;;;;;1.60;1.50;;;;;;;;;;5051821;28;20061;-86
2022/09/18 08:55:38;;;;;;;2.67;1.27;;;;;;;;;;5043624;28;20535;-86
2022/09/18 08:58:06;;;;;;;2.35;1.33;;;;;;;;;;5017754;28;20049;-92
2022/09/18 09:00:34;;;;;;;2.55;1.70;;;;;;;;;;5020038;28;20059;-90
2022/09/18 09:03:21;;;;;;;4.07;1.60;;;;;;;;;;5032995;28;20076;-84
2022/09/18 09:05:50;;;;;;;4.10;1.52;;;;;;;;;;5049353;28;20045;-87
2022/09/18 09:08:26;;;;;;;2.70;1.75;;;;;;;;;;5016971;28;20037;-86
2022/09/18 09:10:54;;;;;;;3.83;1.92;;;;;;;;;;5051113;28;20133;-84
2022/09/18 09:13:39;;;;;;;4.35;1.73;;;;;;;;;;5048458;28;20049;-84
2022/09/18 09:16:08;;;;;;;3.97;1.85;;;;;;;;;;5053831;28;20041;-86
2022/09/18 09:18:38;;;;;;;1.60;1.50;;;;;;;;;;5037135;28;20439;-88
2022/09/18 09:21:28;;;;;;;3.05;1.40;;;;;;;;;;5031959;28;20047;-84
2022/09/18 09:24:20;;;;;;;3.10;1.38;;;;;;;;;;5044047;28;20037;-82
2022/09/18 09:26:50;;;;;;;4.15;1.77;;;;;;;;;;5043188;28;20044;-84
2022/09/18 09:29:22;;;;;;;2.55;1.50;;;;;;;;;;5040033;28;20041;-84
2022/09/18 09:31:53;;;;;;;3.40;1.50;;;;;;;;;;5013746;28;20158;-87
2022/09/18 09:34:32;;;;;;;2.95;1.50;;;;;;;;;;5034830;28;20080;-83
2022/09/18 09:37:01;;;;;;;1.67;1.30;;;;;;;;;;5044677;28;20048;-89
2022/09/18 09:39:33;;;;;;;2.53;1.50;;;;;;;;;;5037043;28;20131;-88
2022/09/18 09:42:04;;;;;;;1.58;1.20;;;;;;;;;;5024268;28;20111;-86
2022/09/18 09:44:30;;;;;;;1.95;1.38;;;;;;;;;;5052652;28;20032;-86
2022/09/18 09:46:57;;;;;;;2.90;1.35;;;;;;;;;;5017019;28;20046;-87
2022/09/18 09:49:25;;;;;;;2.35;1.40;;;;;;;;;;5016793;28;20042;-85
2022/09/18 09:51:57;;;;;;;2.55;1.27;;;;;;;;;;5036597;28;20056;-90
2022/09/18 09:54:23;;;;;;;2.88;1.30;;;;;;;;;;5064140;28;20052;-85
2022/09/18 09:57:05;;;;;;;2.70;1.40;;;;;;;;;;5041254;28;20044;-90
2022/09/18 09:59:44;;;;;;;2.55;1.20;;;;;;;;;;5035341;28;20052;-86
2022/09/18 10:02:29;;;;;;;1.48;1.17;;;;;;;;;;5038473;28;20088;-85
2022/09/18 10:05:04;;;;;;;2.40;1.33;;;;;;;;;;5025077;28;20048;-87
2022/09/18 10:07:36;;;;;;;2.35;1.10;;;;;;;;;;5054182;28;20040;-88
2022/09/18 10:10:14;;;;;;;1.98;1.42;;;;;;;;;;5047713;28;20111;-87
2022/09/18 10:12:40;;;;;;;2.88;1.20;;;;;;;;;;5053085;28;20063;-87
2022/09/18 10:15:31;;;;;;;1.77;1.30;;;;;;;;;;5030787;28;20045;-88
2022/09/18 10:18:06;;;;;;;2.13;1.20;;;;;;;;;;5049261;28;20044;-85
2022/09/18 10:20:34;;;;;;;2.95;1.45;;;;;;;;;;5052257;28;20091;-84
2022/09/18 10:23:04;;;;;;;1.55;1.38;;;;;;;;;;5024199;28;20125;-86
2022/09/18 10:25:50;;;;;;;2.50;1.40;;;;;;;;;;5034003;28;20049;-87
2022/09/18 10:28:16;;;;;;;2.10;1.60;;;;;;;;;;5038342;28;20088;-88
2022/09/18 10:30:53;;;;;;;2.88;1.50;;;;;;;;;;5008536;28;20048;-89
2022/09/18 10:33:34;;;;;;;1.60;1.20;;;;;;;;;;5029328;28;20087;-85
2022/09/18 10:36:21;;;;;;;1.50;1.40;;;;;;;;;;5059441;28;20072;-86
2022/09/18 10:38:48;;;;;;;1.88;1.45;;;;;;;;;;5043944;28;20048;-85
2022/09/18 10:41:20;;;;;;;2.88;1.70;;;;;;;;;;5047170;28;20476;-86
2022/09/18 10:43:55;;;;;;;1.65;1.55;;;;;;;;;;5022408;28;20045;-86
2022/09/18 10:46:22;;;;;;;1.63;1.40;;;;;;;;;;5038310;28;20125;-87
2022/09/18 10:48:49;;;;;;;3.05;1.50;;;;;;;;;;5058570;28;20041;-88
2022/09/18 10:51:24;;;;;;;1.73;1.40;;;;;;;;;;5024934;28;20626;-90
2022/09/18 10:54:02;;;;;;;3.45;1.65;;;;;;;;;;5043143;28;20046;-86
2022/09/18 10:56:30;;;;;;;2.05;1.75;;;;;;;;;;5030856;28;20045;-90
2022/09/18 10:59:11;;;;;;;1.70;1.60;;;;;;;;;;5015163;28;20096;-89
2022/09/18 11:01:37;;;;;;;;;;;;;;;;;;5043999;28;20036;-88
2022/09/18 11:04:14;;;;;;;1.77;1.60;;;;;;;;;;5053944;28;19921;-87
2022/09/18 11:06:42;;;;;;;4.18;1.65;;;;;;;;;;5037805;28;20689;-86
2022/09/18 11:09:09;;;;;;;2.13;1.92;;;;;;;;;;5049164;28;20036;-87
2022/09/18 11:11:43;;;;;;;3.08;1.80;;;;;;;;;;5045105;28;20516;-88
2022/09/18 11:14:28;;;;;;;3.15;1.50;;;;;;;;;;5044263;28;20067;-86